createdAt,value
2022-09-16T00:00:10.668Z,99.39
2022-09-16T00:01:10.739Z,99.39
2022-09-16T00:02:10.722Z,99.39
2022-09-16T00:03:10.647Z,99.49
2022-09-16T00:04:10.668Z,99.49
2022-09-16T00:05:10.629Z,99.44
2022-09-16T00:06:10.619Z,99.44
2022-09-16T00:07:10.615Z,99.34
2022-09-16T00:08:10.584Z,99.34
2022-09-16T00:09:10.592Z,99.34
2022-09-16T00:10:10.569Z,99.24
2022-09-16T00:11:10.562Z,99.29
2022-09-16T00:12:10.542Z,99.29
2022-09-16T00:13:10.540Z,99.29
2022-09-16T00:14:10.559Z,99.29
2022-09-16T00:15:10.531Z,99.08
2022-09-16T00:16:10.576Z,99.08
2022-09-16T00:17:10.503Z,99.08
2022-09-16T00:18:10.498Z,99.08
2022-09-16T00:19:10.473Z,99.08
2022-09-16T00:20:10.469Z,99.08
2022-09-16T00:21:10.455Z,98.98
2022-09-16T00:22:10.439Z,98.98
2022-09-16T00:23:10.427Z,99.08
2022-09-16T00:24:10.420Z,99.08
2022-09-16T00:25:10.429Z,99.18
2022-09-16T00:26:10.392Z,99.18
2022-09-16T00:27:10.374Z,99.18
2022-09-16T00:28:10.362Z,99.29
2022-09-16T00:29:10.352Z,99.39
2022-09-16T00:30:10.391Z,99.39
2022-09-16T00:31:10.390Z,99.49
2022-09-16T00:32:10.322Z,99.59
2022-09-16T00:33:10.310Z,99.59
2022-09-16T00:34:10.294Z,99.69
2022-09-16T00:35:10.306Z,99.79
2022-09-16T00:36:10.281Z,99.79
2022-09-16T00:37:10.263Z,99.79
2022-09-16T00:38:10.249Z,99.79
2022-09-16T00:39:10.244Z,99.79
2022-09-16T00:40:10.310Z,99.79
2022-09-16T00:41:10.217Z,99.79
2022-09-16T00:42:10.213Z,99.69
2022-09-16T00:43:10.194Z,99.69
2022-09-16T00:44:10.192Z,99.69
2022-09-16T00:45:10.213Z,99.69
2022-09-16T00:46:10.165Z,99.69
2022-09-16T00:47:10.235Z,99.74
2022-09-16T00:48:10.141Z,99.69
2022-09-16T00:49:10.133Z,99.79
2022-09-16T00:50:10.133Z,99.69
2022-09-16T00:51:10.110Z,99.74
2022-09-16T00:52:10.091Z,99.59
2022-09-16T00:53:10.098Z,99.43
2022-09-16T00:54:10.103Z,99.49
2022-09-16T00:55:10.077Z,99.59
2022-09-16T00:56:10.054Z,99.54
2022-09-16T00:57:10.046Z,99.54
2022-09-16T00:58:10.030Z,99.54
2022-09-16T00:59:10.024Z,99.49
2022-09-16T01:00:10.021Z,99.49
2022-09-16T01:01:10.101Z,99.43
2022-09-16T01:02:10.029Z,99.39
2022-09-16T01:03:09.980Z,99.39
2022-09-16T01:04:09.956Z,99.39
2022-09-16T01:05:09.969Z,99.49
2022-09-16T01:06:09.944Z,99.54
2022-09-16T01:07:09.938Z,99.54
2022-09-16T01:08:09.914Z,99.59
2022-09-16T01:09:09.925Z,99.54
2022-09-16T01:10:09.913Z,99.54
2022-09-16T01:11:09.880Z,99.54
2022-09-16T01:12:09.872Z,99.54
2022-09-16T01:13:09.868Z,99.54
2022-09-16T01:14:09.847Z,99.54
2022-09-16T01:15:09.858Z,99.54
2022-09-16T01:16:09.946Z,99.54
2022-09-16T01:17:09.828Z,99.64
2022-09-16T01:18:09.804Z,99.64
2022-09-16T01:19:09.811Z,99.74
2022-09-16T01:20:09.789Z,99.74
2022-09-16T01:21:09.763Z,99.74
2022-09-16T01:22:09.761Z,99.74
2022-09-16T01:23:09.756Z,99.74
2022-09-16T01:24:09.733Z,99.69
2022-09-16T01:25:09.755Z,99.54
2022-09-16T01:26:09.712Z,99.54
2022-09-16T01:27:09.713Z,99.49
2022-09-16T01:28:09.707Z,99.59
2022-09-16T01:29:09.677Z,99.69
2022-09-16T01:30:09.708Z,99.69
2022-09-16T01:31:09.731Z,99.59
2022-09-16T01:32:09.652Z,99.59
2022-09-16T01:33:09.627Z,99.59
2022-09-16T01:34:09.619Z,99.59
2022-09-16T01:35:09.637Z,99.49
2022-09-16T01:36:09.598Z,99.39
2022-09-16T01:37:09.596Z,99.39
2022-09-16T01:38:09.576Z,99.29
2022-09-16T01:39:09.570Z,99.18
2022-09-16T01:40:10.936Z,99.29
2022-09-16T01:41:09.551Z,99.29
2022-09-16T01:42:09.539Z,99.39
2022-09-16T01:43:09.516Z,99.49
2022-09-16T01:44:09.503Z,99.49
2022-09-16T01:45:09.508Z,99.49
2022-09-16T01:46:09.523Z,99.59
2022-09-16T01:47:09.472Z,99.59
2022-09-16T01:48:09.484Z,99.49
2022-09-16T01:49:09.448Z,99.49
2022-09-16T01:50:09.465Z,99.49
2022-09-16T01:51:09.428Z,99.59
2022-09-16T01:52:09.429Z,99.49
2022-09-16T01:53:09.407Z,99.39
2022-09-16T01:54:09.404Z,99.29
2022-09-16T01:55:09.405Z,99.39
2022-09-16T01:56:09.360Z,99.29
2022-09-16T01:57:09.361Z,99.29
2022-09-16T01:58:09.346Z,99.29
2022-09-16T01:59:09.340Z,99.29
2022-09-16T02:00:09.337Z,99.29
2022-09-16T02:01:09.311Z,99.29
2022-09-16T02:02:09.415Z,99.39
2022-09-16T02:03:09.290Z,99.39
2022-09-16T02:04:09.292Z,99.39
2022-09-16T02:05:09.284Z,99.39
2022-09-16T02:06:09.259Z,99.33
2022-09-16T02:07:09.256Z,99.13
2022-09-16T02:08:09.249Z,99.13
2022-09-16T02:09:09.228Z,99.23
2022-09-16T02:10:09.231Z,99.33
2022-09-16T02:11:09.211Z,99.33
2022-09-16T02:12:09.211Z,99.43
2022-09-16T02:13:09.175Z,99.43
2022-09-16T02:14:09.178Z,99.54
2022-09-16T02:15:09.187Z,99.54
2022-09-16T02:16:09.194Z,99.64
2022-09-16T02:17:09.127Z,99.74
2022-09-16T02:18:09.127Z,99.74
2022-09-16T02:19:09.106Z,99.84
2022-09-16T02:20:09.110Z,99.95
2022-09-16T02:21:09.087Z,99.99
2022-09-16T02:22:09.086Z,99.99
2022-09-16T02:23:09.065Z,99.99
2022-09-16T02:24:09.070Z,99.99
2022-09-16T02:25:09.065Z,99.99
2022-09-16T02:26:09.038Z,99.99
2022-09-16T02:27:09.020Z,99.99
2022-09-16T02:28:09.006Z,99.99
2022-09-16T02:29:08.995Z,99.99
2022-09-16T02:30:09.021Z,99.99
2022-09-16T02:31:09.047Z,99.99
2022-09-16T02:32:08.967Z,99.99
2022-09-16T02:33:08.972Z,99.99
2022-09-16T02:34:08.941Z,99.99
2022-09-16T02:35:08.940Z,99.99
2022-09-16T02:36:08.922Z,99.99
2022-09-16T02:37:08.912Z,99.99
2022-09-16T02:38:08.894Z,99.99
2022-09-16T02:39:08.891Z,99.99
2022-09-16T02:40:08.958Z,99.99
2022-09-16T02:41:08.853Z,99.99
2022-09-16T02:42:08.851Z,99.99
2022-09-16T02:43:08.848Z,99.99
2022-09-16T02:44:08.845Z,99.95
2022-09-16T02:45:09.518Z,99.84
2022-09-16T02:46:08.849Z,99.74
2022-09-16T02:47:08.804Z,99.74
2022-09-16T02:48:08.789Z,99.64
2022-09-16T02:49:08.763Z,99.74
2022-09-16T02:50:08.773Z,99.74
2022-09-16T02:51:08.746Z,99.89
2022-09-16T02:52:08.740Z,99.74
2022-09-16T02:53:08.726Z,99.89
2022-09-16T02:54:08.709Z,99.99
2022-09-16T02:55:08.727Z,99.99
2022-09-16T02:56:08.694Z,99.99
2022-09-16T02:57:08.673Z,99.99
2022-09-16T02:58:19.177Z,99.99
2022-09-16T02:59:08.654Z,99.99
2022-09-16T03:00:08.653Z,99.99
2022-09-16T03:01:08.650Z,99.99
2022-09-16T03:02:08.719Z,99.99
2022-09-16T03:03:08.728Z,99.99
2022-09-16T03:04:08.615Z,99.99
2022-09-16T03:05:08.586Z,99.99
2022-09-16T03:06:08.597Z,99.99
2022-09-16T03:07:08.581Z,99.99
2022-09-16T03:08:08.559Z,99.99
2022-09-16T03:09:08.540Z,99.99
2022-09-16T03:10:08.533Z,99.99
2022-09-16T03:11:08.539Z,99.99
2022-09-16T03:12:08.511Z,99.99
2022-09-16T03:13:08.517Z,99.99
2022-09-16T03:14:08.502Z,99.99
2022-09-16T03:15:08.480Z,99.99
2022-09-16T03:16:08.537Z,99.99
2022-09-16T03:17:08.466Z,99.99
2022-09-16T03:18:08.444Z,99.99
2022-09-16T03:19:08.430Z,99.99
2022-09-16T03:20:08.420Z,99.99
2022-09-16T03:21:08.422Z,99.99
2022-09-16T03:22:08.403Z,99.99
2022-09-16T03:23:08.402Z,99.99
2022-09-16T03:24:08.372Z,99.99
2022-09-16T03:25:08.357Z,99.99
2022-09-16T03:26:08.368Z,99.99
2022-09-16T03:27:08.340Z,99.99
2022-09-16T03:28:08.328Z,99.99
2022-09-16T03:29:08.316Z,99.99
2022-09-16T03:30:08.313Z,99.99
2022-09-16T03:31:08.354Z,99.99
2022-09-16T03:32:08.283Z,99.99
2022-09-16T03:33:08.267Z,99.99
2022-09-16T03:34:08.264Z,99.99
2022-09-16T03:35:08.243Z,99.99
2022-09-16T03:36:08.272Z,99.99
2022-09-16T03:37:08.243Z,99.99
2022-09-16T03:38:08.216Z,99.99
2022-09-16T03:39:08.199Z,99.99
2022-09-16T03:40:08.249Z,99.99
2022-09-16T03:41:08.205Z,99.99
2022-09-16T03:42:08.176Z,99.99
2022-09-16T03:43:08.154Z,99.99
2022-09-16T03:44:08.149Z,99.99
2022-09-16T03:45:08.144Z,99.99
2022-09-16T03:46:08.172Z,99.99
2022-09-16T03:47:08.127Z,99.99
2022-09-16T03:48:08.094Z,99.99
2022-09-16T03:49:08.099Z,99.99
2022-09-16T03:50:08.079Z,99.99
2022-09-16T03:51:08.081Z,99.99
2022-09-16T03:52:08.060Z,99.99
2022-09-16T03:53:08.043Z,99.99
2022-09-16T03:54:08.034Z,99.99
2022-09-16T03:55:08.030Z,99.99
2022-09-16T03:56:08.028Z,99.99
2022-09-16T03:57:07.996Z,99.99
2022-09-16T03:58:07.987Z,99.99
2022-09-16T03:59:07.991Z,99.99
2022-09-16T04:00:07.972Z,99.99
2022-09-16T04:01:08.042Z,99.99
2022-09-16T04:02:07.939Z,99.99
2022-09-16T04:03:07.994Z,99.99
2022-09-16T04:04:07.923Z,99.99
2022-09-16T04:05:07.908Z,99.99
2022-09-16T04:06:07.913Z,99.99
2022-09-16T04:07:07.874Z,99.99
2022-09-16T04:08:07.877Z,99.99
2022-09-16T04:09:07.860Z,99.99
2022-09-16T04:10:07.859Z,99.99
2022-09-16T04:11:07.857Z,99.99
2022-09-16T04:12:07.837Z,99.99
2022-09-16T04:13:07.810Z,99.99
2022-09-16T04:14:07.797Z,99.99
2022-09-16T04:15:07.800Z,99.99
2022-09-16T04:16:07.888Z,99.99
2022-09-16T04:17:07.767Z,99.99
2022-09-16T04:18:07.772Z,99.99
2022-09-16T04:19:07.766Z,99.99
2022-09-16T04:20:07.737Z,99.99
2022-09-16T04:21:07.743Z,99.99
2022-09-16T04:22:07.706Z,99.99
2022-09-16T04:23:07.719Z,99.99
2022-09-16T04:24:12.665Z,99.99
2022-09-16T04:25:07.680Z,99.99
2022-09-16T04:26:07.685Z,99.99
2022-09-16T04:27:07.656Z,99.99
2022-09-16T04:28:07.667Z,99.99
2022-09-16T04:29:07.638Z,99.99
2022-09-16T04:30:07.632Z,99.99
2022-09-16T04:31:07.664Z,99.99
2022-09-16T04:32:07.602Z,99.99
2022-09-16T04:33:07.600Z,99.99
2022-09-16T04:34:07.580Z,99.99
2022-09-16T04:35:08.131Z,99.99
2022-09-16T04:36:07.571Z,99.99
2022-09-16T04:37:07.553Z,99.99
2022-09-16T04:38:07.538Z,99.99
2022-09-16T04:39:07.534Z,99.99
2022-09-16T04:40:07.532Z,99.99
2022-09-16T04:41:07.511Z,99.99
2022-09-16T04:42:07.490Z,99.99
2022-09-16T04:43:07.484Z,99.99
2022-09-16T04:44:07.470Z,99.99
2022-09-16T04:45:07.444Z,99.99
2022-09-16T04:46:07.486Z,99.99
2022-09-16T04:47:07.423Z,99.99
2022-09-16T04:48:07.428Z,99.99
2022-09-16T04:49:07.430Z,99.99
2022-09-16T04:50:07.430Z,99.99
2022-09-16T04:51:07.395Z,99.99
2022-09-16T04:52:07.369Z,99.99
2022-09-16T04:53:07.359Z,99.99
2022-09-16T04:54:07.343Z,99.99
2022-09-16T04:55:07.332Z,99.99
2022-09-16T04:56:07.341Z,99.99
2022-09-16T04:57:07.322Z,99.99
2022-09-16T04:58:07.310Z,99.99
2022-09-16T04:59:07.292Z,99.99
2022-09-16T05:00:07.298Z,99.99
2022-09-16T05:01:07.341Z,99.99
2022-09-16T05:02:07.260Z,99.99
2022-09-16T05:03:07.310Z,99.99
2022-09-16T05:04:07.234Z,99.99
2022-09-16T05:05:13.800Z,99.99
2022-09-16T05:06:07.233Z,99.99
2022-09-16T05:07:07.196Z,99.99
2022-09-16T05:08:07.188Z,99.99
2022-09-16T05:09:07.202Z,99.99
2022-09-16T05:10:07.176Z,99.99
2022-09-16T05:11:07.166Z,99.99
2022-09-16T05:12:07.163Z,99.99
2022-09-16T05:13:07.135Z,99.99
2022-09-16T05:14:07.150Z,99.99
2022-09-16T05:15:07.109Z,99.99
2022-09-16T05:16:07.184Z,99.99
2022-09-16T05:17:07.097Z,99.99
2022-09-16T05:18:07.276Z,99.99
2022-09-16T05:19:07.069Z,99.99
2022-09-16T05:20:07.083Z,99.99
2022-09-16T05:21:07.062Z,99.99
2022-09-16T05:22:07.051Z,99.99
2022-09-16T05:23:07.012Z,99.99
2022-09-16T05:24:07.029Z,99.99
2022-09-16T05:25:06.994Z,99.99
2022-09-16T05:26:07.018Z,99.99
2022-09-16T05:27:06.968Z,99.99
2022-09-16T05:28:06.968Z,99.99
2022-09-16T05:29:06.961Z,99.99
2022-09-16T05:30:06.950Z,99.99
2022-09-16T05:31:06.994Z,99.99
2022-09-16T05:32:06.923Z,99.99
2022-09-16T05:33:06.907Z,99.99
2022-09-16T05:34:06.898Z,99.99
2022-09-16T05:35:06.895Z,99.99
2022-09-16T05:36:06.898Z,99.99
2022-09-16T05:37:06.865Z,99.99
2022-09-16T05:38:06.860Z,99.99
2022-09-16T05:39:24.052Z,99.99
2022-09-16T05:40:06.885Z,99.99
2022-09-16T05:41:06.830Z,99.99
2022-09-16T05:42:06.811Z,99.99
2022-09-16T05:43:06.802Z,99.99
2022-09-16T05:44:06.783Z,99.99
2022-09-16T05:45:06.774Z,99.99
2022-09-16T05:46:06.824Z,99.99
2022-09-16T05:47:06.745Z,99.99
2022-09-16T05:48:06.756Z,99.99
2022-09-16T05:49:06.724Z,99.99
2022-09-16T05:50:06.728Z,99.99
2022-09-16T05:51:06.725Z,99.99
2022-09-16T05:52:06.697Z,99.99
2022-09-16T05:53:06.677Z,99.99
2022-09-16T05:54:06.669Z,99.99
2022-09-16T05:55:06.682Z,99.99
2022-09-16T05:56:06.666Z,99.99
2022-09-16T05:57:07.329Z,99.99
2022-09-16T05:58:06.628Z,99.99
2022-09-16T05:59:06.615Z,99.99
2022-09-16T06:00:06.618Z,99.99
2022-09-16T06:01:06.629Z,99.99
2022-09-16T06:02:06.636Z,99.99
2022-09-16T06:03:06.558Z,99.99
2022-09-16T06:04:06.549Z,99.99
2022-09-16T06:05:06.555Z,99.99
2022-09-16T06:06:06.555Z,99.99
2022-09-16T06:07:06.532Z,99.99
2022-09-16T06:08:06.511Z,99.99
2022-09-16T06:09:06.499Z,99.99
2022-09-16T06:10:06.512Z,99.99
2022-09-16T06:11:06.500Z,99.99
2022-09-16T06:12:06.461Z,99.99
2022-09-16T06:13:06.471Z,99.99
2022-09-16T06:14:06.440Z,99.99
2022-09-16T06:15:06.435Z,99.99
2022-09-16T06:16:06.496Z,99.99
2022-09-16T06:17:06.412Z,99.99
2022-09-16T06:18:06.711Z,99.84
2022-09-16T06:19:06.394Z,99.84
2022-09-16T06:20:06.385Z,99.95
2022-09-16T06:21:06.403Z,99.99
2022-09-16T06:22:06.360Z,99.99
2022-09-16T06:23:06.339Z,99.99
2022-09-16T06:24:06.338Z,99.99
2022-09-16T06:25:06.320Z,99.99
2022-09-16T06:26:06.326Z,99.99
2022-09-16T06:27:06.306Z,99.99
2022-09-16T06:28:06.293Z,99.99
2022-09-16T06:29:06.300Z,99.99
2022-09-16T06:30:06.259Z,99.84
2022-09-16T06:31:06.500Z,99.74
2022-09-16T06:32:06.246Z,99.64
2022-09-16T06:33:06.230Z,99.64
2022-09-16T06:34:06.211Z,99.54
2022-09-16T06:35:06.212Z,99.64
2022-09-16T06:36:06.203Z,99.58
2022-09-16T06:37:06.202Z,99.68
2022-09-16T06:38:06.179Z,99.58
2022-09-16T06:39:06.162Z,99.68
2022-09-16T06:40:06.205Z,99.68
2022-09-16T06:41:06.149Z,99.79
2022-09-16T06:42:06.155Z,99.99
2022-09-16T06:43:06.136Z,99.99
2022-09-16T06:44:06.102Z,99.99
2022-09-16T06:45:06.089Z,99.99
2022-09-16T06:46:06.163Z,99.99
2022-09-16T06:47:06.082Z,99.58
2022-09-16T06:48:06.059Z,99.58
2022-09-16T06:49:06.835Z,99.64
2022-09-16T06:50:06.042Z,99.74
2022-09-16T06:51:06.058Z,99.74
2022-09-16T06:52:06.036Z,99.74
2022-09-16T06:53:06.005Z,99.84
2022-09-16T06:54:05.992Z,99.84
2022-09-16T06:55:05.995Z,99.84
2022-09-16T06:56:05.969Z,99.95
2022-09-16T06:57:11.347Z,99.99
2022-09-16T06:58:05.955Z,99.84
2022-09-16T06:59:05.957Z,99.74
2022-09-16T07:00:05.948Z,99.74
2022-09-16T07:01:05.964Z,99.74
2022-09-16T07:02:06.012Z,99.54
2022-09-16T07:03:05.894Z,99.43
2022-09-16T07:04:05.889Z,99.43
2022-09-16T07:05:05.869Z,99.43
2022-09-16T07:06:05.863Z,99.43
2022-09-16T07:07:09.779Z,99.43
2022-09-16T07:08:05.854Z,99.13
2022-09-16T07:09:05.841Z,99.02
2022-09-16T07:10:05.849Z,98.61
2022-09-16T07:11:05.791Z,98.52
2022-09-16T07:12:05.822Z,98.36
2022-09-16T07:13:05.786Z,98.36
2022-09-16T07:14:05.784Z,98.36
2022-09-16T07:15:05.772Z,97.65
2022-09-16T07:16:14.111Z,97.86
2022-09-16T07:17:05.783Z,97.75
2022-09-16T07:18:05.726Z,97.86
2022-09-16T07:19:05.715Z,97.75
2022-09-16T07:20:05.688Z,96.94
2022-09-16T07:21:05.693Z,97.09
2022-09-16T07:22:05.704Z,97.50
2022-09-16T07:23:05.676Z,97.20
2022-09-16T07:24:05.681Z,97.00
2022-09-16T07:25:05.638Z,96.79
2022-09-16T07:26:05.652Z,96.79
2022-09-16T07:27:05.630Z,96.79
2022-09-16T07:28:05.617Z,96.89
2022-09-16T07:29:05.612Z,97.50
2022-09-16T07:30:08.966Z,98.02
2022-09-16T07:31:05.753Z,98.11
2022-09-16T07:32:05.605Z,97.81
2022-09-16T07:33:05.611Z,97.81
2022-09-16T07:34:05.578Z,97.50
2022-09-16T07:35:05.541Z,97.20
2022-09-16T07:36:05.533Z,96.28
2022-09-16T07:37:05.545Z,96.14
2022-09-16T07:38:05.497Z,96.84
2022-09-16T07:39:05.500Z,97.36
2022-09-16T07:40:05.558Z,97.36
2022-09-16T07:41:05.483Z,96.03
2022-09-16T07:42:06.368Z,95.93
2022-09-16T07:43:05.454Z,95.52
2022-09-16T07:44:05.435Z,95.78
2022-09-16T07:45:05.419Z,96.30
2022-09-16T07:46:05.439Z,95.78
2022-09-16T07:47:05.404Z,94.76
2022-09-16T07:48:05.390Z,95.37
2022-09-16T07:49:05.372Z,94.97
2022-09-16T07:50:05.389Z,95.43
2022-09-16T07:51:05.365Z,94.52
2022-09-16T07:52:05.357Z,94.42
2022-09-16T07:53:05.341Z,94.21
2022-09-16T07:54:05.327Z,94.52
2022-09-16T07:55:05.310Z,93.40
2022-09-16T07:56:05.326Z,93.55
2022-09-16T07:57:05.307Z,94.17
2022-09-16T07:58:05.277Z,94.32
2022-09-16T07:59:05.264Z,94.69
2022-09-16T08:00:05.269Z,93.06
2022-09-16T08:01:05.366Z,92.25
2022-09-16T08:02:05.496Z,92.35
2022-09-16T08:03:05.300Z,92.35
2022-09-16T08:04:05.219Z,91.74
2022-09-16T08:05:05.196Z,92.35
2022-09-16T08:06:05.199Z,91.84
2022-09-16T08:07:05.203Z,92.25
2022-09-16T08:08:05.180Z,92.04
2022-09-16T08:09:15.681Z,92.04
2022-09-16T08:10:05.158Z,93.26
2022-09-16T08:11:05.130Z,93.16
2022-09-16T08:12:05.132Z,93.98
2022-09-16T08:13:05.103Z,94.48
2022-09-16T08:14:05.130Z,94.38
2022-09-16T08:15:05.080Z,94.32
2022-09-16T08:16:05.096Z,94.32
2022-09-16T08:17:05.115Z,93.92
2022-09-16T08:18:05.056Z,94.02
2022-09-16T08:19:05.043Z,93.66
2022-09-16T08:20:05.033Z,94.17
2022-09-16T08:21:05.019Z,94.37
2022-09-16T08:22:05.053Z,94.17
2022-09-16T08:23:04.996Z,94.17
2022-09-16T08:24:05.000Z,94.27
2022-09-16T08:25:04.975Z,94.98
2022-09-16T08:26:04.970Z,95.08
2022-09-16T08:27:04.971Z,94.73
2022-09-16T08:28:04.948Z,94.63
2022-09-16T08:29:08.749Z,94.32
2022-09-16T08:30:04.959Z,94.63
2022-09-16T08:31:04.929Z,94.63
2022-09-16T08:32:05.013Z,94.73
2022-09-16T08:33:04.892Z,95.04
2022-09-16T08:34:04.879Z,94.79
2022-09-16T08:35:04.880Z,94.59
2022-09-16T08:36:04.859Z,94.38
2022-09-16T08:37:04.847Z,94.89
2022-09-16T08:38:04.839Z,94.89
2022-09-16T08:39:04.820Z,94.69
2022-09-16T08:40:05.085Z,94.89
2022-09-16T08:41:04.799Z,95.09
2022-09-16T08:42:04.814Z,95.50
2022-09-16T08:43:04.785Z,95.00
2022-09-16T08:44:04.763Z,94.79
2022-09-16T08:45:04.765Z,94.18
2022-09-16T08:46:04.837Z,93.98
2022-09-16T08:47:04.758Z,94.34
2022-09-16T08:48:04.740Z,94.13
2022-09-16T08:49:04.785Z,92.61
2022-09-16T08:50:04.743Z,90.17
2022-09-16T08:51:04.718Z,90.78
2022-09-16T08:52:04.730Z,91.09
2022-09-16T08:53:04.725Z,91.60
2022-09-16T08:54:04.677Z,91.49
2022-09-16T08:55:04.697Z,90.78
2022-09-16T08:56:04.671Z,91.29
2022-09-16T08:57:04.681Z,91.09
2022-09-16T08:58:04.645Z,91.14
2022-09-16T08:59:04.627Z,90.94
2022-09-16T09:00:04.634Z,89.31
2022-09-16T09:01:04.747Z,90.74
2022-09-16T09:02:09.178Z,90.94
2022-09-16T09:03:04.589Z,90.23
2022-09-16T09:04:04.559Z,89.62
2022-09-16T09:05:04.539Z,90.03
2022-09-16T09:06:04.540Z,90.59
2022-09-16T09:07:04.556Z,90.80
2022-09-16T09:08:04.586Z,89.88
2022-09-16T09:09:04.523Z,89.48
2022-09-16T09:10:07.140Z,88.93
2022-09-16T09:11:04.493Z,89.03
2022-09-16T09:12:04.518Z,88.32
2022-09-16T09:13:04.621Z,85.53
2022-09-16T09:14:04.483Z,87.67
2022-09-16T09:15:04.435Z,88.18
2022-09-16T09:16:04.468Z,86.96
2022-09-16T09:17:04.422Z,87.06
2022-09-16T09:18:04.442Z,87.37
2022-09-16T09:19:04.380Z,87.43
2022-09-16T09:20:04.398Z,87.73
2022-09-16T09:21:04.373Z,87.32
2022-09-16T09:22:04.494Z,87.89
2022-09-16T09:23:04.343Z,87.73
2022-09-16T09:24:04.353Z,87.63
2022-09-16T09:25:04.322Z,87.83
2022-09-16T09:26:04.337Z,88.60
2022-09-16T09:27:04.315Z,87.02
2022-09-16T09:28:04.292Z,86.21
2022-09-16T09:29:04.280Z,85.39
2022-09-16T09:30:04.305Z,85.50
2022-09-16T09:31:07.461Z,83.20
2022-09-16T09:32:04.369Z,82.50
2022-09-16T09:33:04.316Z,84.12
2022-09-16T09:34:04.236Z,83.00
2022-09-16T09:35:04.208Z,83.00
2022-09-16T09:36:04.215Z,84.32
2022-09-16T09:37:04.214Z,84.93
2022-09-16T09:38:04.213Z,85.44
2022-09-16T09:39:04.176Z,85.94
2022-09-16T09:40:04.238Z,86.61
2022-09-16T09:41:04.174Z,87.22
2022-09-16T09:42:04.168Z,86.10
2022-09-16T09:43:04.147Z,85.50
2022-09-16T09:44:04.190Z,85.80
2022-09-16T09:45:04.163Z,87.63
2022-09-16T09:46:04.147Z,86.31
2022-09-16T09:47:04.139Z,86.61
2022-09-16T09:48:04.102Z,86.51
2022-09-16T09:49:04.152Z,85.30
2022-09-16T09:50:04.062Z,85.50
2022-09-16T09:51:04.063Z,82.86
2022-09-16T09:52:04.070Z,84.78
2022-09-16T09:53:04.040Z,85.60
2022-09-16T09:54:04.019Z,86.31
2022-09-16T09:55:04.020Z,85.90
2022-09-16T09:56:04.024Z,86.21
2022-09-16T09:57:04.028Z,86.21
2022-09-16T09:58:03.987Z,86.00
2022-09-16T09:59:03.961Z,85.30
2022-09-16T10:00:03.970Z,83.17
2022-09-16T10:01:04.054Z,82.35
2022-09-16T10:02:03.992Z,82.96
2022-09-16T10:03:03.943Z,82.25
2022-09-16T10:04:03.914Z,82.15
2022-09-16T10:05:03.923Z,83.17
2022-09-16T10:06:03.918Z,83.67
2022-09-16T10:07:03.918Z,83.43
2022-09-16T10:08:03.881Z,84.55
2022-09-16T10:09:03.868Z,83.43
2022-09-16T10:10:03.842Z,82.01
2022-09-16T10:11:03.843Z,82.17
2022-09-16T10:12:03.846Z,82.89
2022-09-16T10:13:03.808Z,82.34
2022-09-16T10:14:03.817Z,82.70
2022-09-16T10:15:03.779Z,81.15
2022-09-16T10:16:03.838Z,80.04
2022-09-16T10:17:03.804Z,78.82
2022-09-16T10:18:03.761Z,78.55
2022-09-16T10:19:03.744Z,79.22
2022-09-16T10:20:03.729Z,79.97
2022-09-16T10:21:03.732Z,80.84
2022-09-16T10:22:03.722Z,79.26
2022-09-16T10:23:03.705Z,81.59
2022-09-16T10:24:03.705Z,79.57
2022-09-16T10:25:03.693Z,80.11
2022-09-16T10:26:03.657Z,82.14
2022-09-16T10:27:03.704Z,80.35
2022-09-16T10:28:03.656Z,81.57
2022-09-16T10:29:03.648Z,82.31
2022-09-16T10:30:03.680Z,83.63
2022-09-16T10:31:03.684Z,84.95
2022-09-16T10:32:03.688Z,84.58
2022-09-16T10:33:03.593Z,85.50
2022-09-16T10:34:03.579Z,86.21
2022-09-16T10:35:03.564Z,86.41
2022-09-16T10:36:03.540Z,85.50
2022-09-16T10:37:03.548Z,86.41
2022-09-16T10:38:03.534Z,87.22
2022-09-16T10:39:04.687Z,87.83
2022-09-16T10:40:03.594Z,86.77
2022-09-16T10:41:03.509Z,85.86
2022-09-16T10:42:03.504Z,85.46
2022-09-16T10:43:03.495Z,86.73
2022-09-16T10:44:03.472Z,86.63
2022-09-16T10:45:03.461Z,86.33
2022-09-16T10:46:03.502Z,82.34
2022-09-16T10:47:03.451Z,85.27
2022-09-16T10:48:06.504Z,85.48
2022-09-16T10:49:03.427Z,84.06
2022-09-16T10:50:03.422Z,83.72
2022-09-16T10:51:03.419Z,81.90
2022-09-16T10:52:04.210Z,80.38
2022-09-16T10:53:03.420Z,80.88
2022-09-16T10:54:03.373Z,78.96
2022-09-16T10:55:03.349Z,82.10
2022-09-16T10:56:03.778Z,80.78
2022-09-16T10:57:03.328Z,80.78
2022-09-16T10:58:03.316Z,80.88
2022-09-16T10:59:03.286Z,80.68
2022-09-16T11:00:03.291Z,80.13
2022-09-16T11:01:03.383Z,79.63
2022-09-16T11:02:03.573Z,80.34
2022-09-16T11:03:03.272Z,80.54
2022-09-16T11:04:05.253Z,80.91
2022-09-16T11:05:09.780Z,80.00
2022-09-16T11:06:03.224Z,77.23
2022-09-16T11:07:03.208Z,77.43
2022-09-16T11:08:03.182Z,78.91
2022-09-16T11:09:03.170Z,78.20
2022-09-16T11:10:03.175Z,78.88
2022-09-16T11:11:03.166Z,78.63
2022-09-16T11:12:04.530Z,77.02
2022-09-16T11:13:03.127Z,77.93
2022-09-16T11:14:03.130Z,77.22
2022-09-16T11:15:03.104Z,73.58
2022-09-16T11:16:03.114Z,73.79
2022-09-16T11:17:03.100Z,74.49
2022-09-16T11:18:03.075Z,75.20
2022-09-16T11:19:03.056Z,71.06
2022-09-16T11:20:03.052Z,73.28
2022-09-16T11:21:03.073Z,74.87
2022-09-16T11:22:03.035Z,72.44
2022-09-16T11:23:03.033Z,73.65
2022-09-16T11:24:03.011Z,71.94
2022-09-16T11:25:03.001Z,73.11
2022-09-16T11:26:02.993Z,73.22
2022-09-16T11:27:02.988Z,74.22
2022-09-16T11:28:02.969Z,75.43
2022-09-16T11:29:02.951Z,72.51
2022-09-16T11:30:02.949Z,71.87
2022-09-16T11:31:03.745Z,72.11
2022-09-16T11:32:02.915Z,73.32
2022-09-16T11:33:03.669Z,74.43
2022-09-16T11:34:03.976Z,72.91
2022-09-16T11:35:02.881Z,73.96
2022-09-16T11:36:02.881Z,74.36
2022-09-16T11:37:02.881Z,74.60
2022-09-16T11:38:02.865Z,74.93
2022-09-16T11:39:02.842Z,75.74
2022-09-16T11:40:02.884Z,78.50
2022-09-16T11:41:02.844Z,79.35
2022-09-16T11:42:02.832Z,81.07
2022-09-16T11:43:02.826Z,83.84
2022-09-16T11:44:02.818Z,83.92
2022-09-16T11:45:02.827Z,85.24
2022-09-16T11:46:02.774Z,86.65
2022-09-16T11:47:02.754Z,88.17
2022-09-16T11:48:02.751Z,87.71
2022-09-16T11:49:02.725Z,87.00
2022-09-16T11:50:02.721Z,87.00
2022-09-16T11:51:02.731Z,86.79
2022-09-16T11:52:02.698Z,87.40
2022-09-16T11:53:05.316Z,87.65
2022-09-16T11:54:02.749Z,88.15
2022-09-16T11:55:02.662Z,87.45
2022-09-16T11:56:02.659Z,86.83
2022-09-16T11:57:02.627Z,86.98
2022-09-16T11:58:02.645Z,87.89
2022-09-16T11:59:02.635Z,88.40
2022-09-16T12:00:02.605Z,87.38
2022-09-16T12:01:02.587Z,87.99
2022-09-16T12:02:02.660Z,88.20
2022-09-16T12:03:02.633Z,87.59
2022-09-16T12:04:02.558Z,88.20
2022-09-16T12:05:02.544Z,87.69
2022-09-16T12:06:02.537Z,86.68
2022-09-16T12:07:02.520Z,86.27
2022-09-16T12:08:02.528Z,87.99
2022-09-16T12:09:03.773Z,87.38
2022-09-16T12:10:02.499Z,87.18
2022-09-16T12:11:02.513Z,86.57
2022-09-16T12:12:02.469Z,83.83
2022-09-16T12:13:02.471Z,84.55
2022-09-16T12:14:05.952Z,86.02
2022-09-16T12:15:05.652Z,86.73
2022-09-16T12:16:02.428Z,87.30
2022-09-16T12:17:02.411Z,86.83
2022-09-16T12:18:02.425Z,84.91
2022-09-16T12:19:02.405Z,86.43
2022-09-16T12:20:02.375Z,86.53
2022-09-16T12:21:02.376Z,85.68
2022-09-16T12:22:02.377Z,87.71
2022-09-16T12:23:02.375Z,87.81
2022-09-16T12:24:02.345Z,86.49
2022-09-16T12:25:02.328Z,86.08
2022-09-16T12:26:02.316Z,87.46
2022-09-16T12:27:02.312Z,86.65
2022-09-16T12:28:02.330Z,85.33
2022-09-16T12:29:02.275Z,84.93
2022-09-16T12:30:02.290Z,83.61
2022-09-16T12:31:02.313Z,84.53
2022-09-16T12:32:02.259Z,85.50
2022-09-16T12:33:02.261Z,86.51
2022-09-16T12:34:02.232Z,85.90
2022-09-16T12:35:02.225Z,84.19
2022-09-16T12:36:02.209Z,80.94
2022-09-16T12:37:02.182Z,82.36
2022-09-16T12:38:02.209Z,84.04
2022-09-16T12:39:02.187Z,82.12
2022-09-16T12:40:02.265Z,83.50
2022-09-16T12:41:02.148Z,82.85
2022-09-16T12:42:02.145Z,80.39
2022-09-16T12:43:02.136Z,80.19
2022-09-16T12:44:17.031Z,80.35
2022-09-16T12:45:02.130Z,83.28
2022-09-16T12:46:02.159Z,81.56
2022-09-16T12:47:02.085Z,80.39
2022-09-16T12:48:02.091Z,79.08
2022-09-16T12:49:02.059Z,78.71
2022-09-16T12:50:02.041Z,79.25
2022-09-16T12:51:02.041Z,80.06
2022-09-16T12:52:02.020Z,81.27